createdAt,value
2023-03-22T00:00:42.037Z,40.70
2023-03-22T00:03:10.564Z,39.50
2023-03-22T00:05:40.133Z,35.10
2023-03-22T00:08:27.875Z,37.40
2023-03-22T00:10:55.911Z,38.60
2023-03-22T00:13:25.620Z,38.60
2023-03-22T00:15:57.322Z,40.50
2023-03-22T00:18:31.592Z,36.60
2023-03-22T00:20:59.850Z,40.20
2023-03-22T00:23:28.244Z,36.70
2023-03-22T00:25:58.524Z,37.50
2023-03-22T00:28:27.593Z,37.20
2023-03-22T00:31:02.687Z,35.20
2023-03-22T00:33:31.302Z,35.70
2023-03-22T00:36:03.384Z,33.60
2023-03-22T00:38:44.051Z,33.10
2023-03-22T00:41:17.407Z,35.20
2023-03-22T00:43:49.207Z,36.20
2023-03-22T00:46:19.533Z,38.50
2023-03-22T00:48:48.078Z,34.50
2023-03-22T00:51:16.305Z,32.80
2023-03-22T00:53:45.754Z,35.20
2023-03-22T00:56:16.055Z,35.60
2023-03-22T00:59:05.062Z,32.40
2023-03-22T01:01:34.828Z,31.80
2023-03-22T01:04:05.200Z,33.70
2023-03-22T01:06:33.951Z,33.90
2023-03-22T01:09:02.059Z,33.80
2023-03-22T01:11:31.667Z,35.10
2023-03-22T01:13:59.739Z,32.10
2023-03-22T01:16:28.065Z,34.40
2023-03-22T01:18:56.548Z,34.80
2023-03-22T01:21:24.684Z,35.80
2023-03-22T01:23:52.821Z,33.90
2023-03-22T01:26:21.168Z,30.00
2023-03-22T01:28:49.920Z,35.10
2023-03-22T01:31:17.883Z,27.90
2023-03-22T01:33:46.066Z,33.80
2023-03-22T01:36:14.276Z,33.30
2023-03-22T01:38:45.071Z,30.90
2023-03-22T01:41:13.362Z,32.90
2023-03-22T01:43:42.238Z,30.20
2023-03-22T01:46:14.880Z,32.70
2023-03-22T01:48:46.827Z,34.10
2023-03-22T01:51:27.766Z,29.50
2023-03-22T01:54:30.723Z,33.40
2023-03-22T01:56:58.828Z,34.30
2023-03-22T01:59:36.507Z,32.80
2023-03-22T02:02:31.016Z,35.40
2023-03-22T02:05:09.996Z,37.20
2023-03-22T02:07:38.022Z,32.50
2023-03-22T02:10:23.833Z,32.70
2023-03-22T02:13:07.817Z,31.90
2023-03-22T02:16:17.537Z,31.10
2023-03-22T02:18:56.033Z,31.80
2023-03-22T02:21:51.795Z,33.10
2023-03-22T02:24:28.157Z,31.80
2023-03-22T02:27:34.098Z,34.10
2023-03-22T02:30:22.081Z,38.80
2023-03-22T02:33:07.581Z,32.80
2023-03-22T02:36:08.976Z,32.60
2023-03-22T02:39:14.959Z,35.80
2023-03-22T02:42:03.891Z,36.50
2023-03-22T02:44:42.684Z,32.70
2023-03-22T02:47:35.589Z,34.10
2023-03-22T02:50:19.326Z,34.90
2023-03-22T02:52:56.165Z,35.20
2023-03-22T02:55:29.508Z,32.10
2023-03-22T02:58:00.511Z,29.90
2023-03-22T03:00:29.099Z,32.60
2023-03-22T03:03:02.066Z,33.30
2023-03-22T03:05:31.376Z,33.10
2023-03-22T03:08:00.746Z,35.20
2023-03-22T03:10:32.228Z,32.00
2023-03-22T03:13:03.806Z,36.30
2023-03-22T03:15:32.092Z,33.50
2023-03-22T03:18:16.118Z,32.30
2023-03-22T03:21:00.448Z,34.40
2023-03-22T03:23:48.937Z,31.80
2023-03-22T03:26:28.221Z,37.60
2023-03-22T03:29:05.344Z,31.50
2023-03-22T03:31:47.649Z,31.90
2023-03-22T03:34:17.784Z,33.40
2023-03-22T03:36:50.960Z,35.00
2023-03-22T03:39:19.001Z,31.90
2023-03-22T03:41:47.221Z,34.00
2023-03-22T03:44:18.319Z,33.50
2023-03-22T03:46:46.877Z,37.30
2023-03-22T03:49:16.128Z,33.70
2023-03-22T03:51:49.839Z,33.40
2023-03-22T03:54:18.059Z,35.60
2023-03-22T03:56:47.841Z,30.70
2023-03-22T03:59:19.927Z,29.90
2023-03-22T04:01:53.564Z,29.30
2023-03-22T04:04:30.220Z,29.60
2023-03-22T04:07:04.167Z,29.80
2023-03-22T04:09:36.843Z,29.30
2023-03-22T04:12:17.449Z,29.00
2023-03-22T04:14:52.714Z,31.30
2023-03-22T04:17:23.370Z,33.20
2023-03-22T04:19:56.627Z,31.30
2023-03-22T04:22:26.639Z,33.30
2023-03-22T04:24:58.090Z,27.30
2023-03-22T04:27:29.416Z,31.50
2023-03-22T04:30:11.419Z,30.30
2023-03-22T04:33:08.645Z,34.10
2023-03-22T04:36:16.007Z,28.80
2023-03-22T04:38:55.456Z,30.30
2023-03-22T04:41:24.806Z,30.50
2023-03-22T04:43:54.923Z,27.20
2023-03-22T04:46:24.148Z,28.70
2023-03-22T04:49:01.217Z,29.00
2023-03-22T04:51:32.182Z,28.90
2023-03-22T04:54:35.715Z,30.00
2023-03-22T04:57:05.661Z,29.30
2023-03-22T04:59:38.556Z,28.00
2023-03-22T05:02:06.840Z,30.60
2023-03-22T05:04:43.277Z,29.10
2023-03-22T05:07:31.165Z,35.20
2023-03-22T05:10:01.380Z,32.00
2023-03-22T05:12:29.941Z,33.10
2023-03-22T05:15:21.074Z,27.70
2023-03-22T05:17:52.927Z,33.20
2023-03-22T05:20:21.119Z,33.30
2023-03-22T05:22:59.271Z,29.70
2023-03-22T05:25:30.131Z,30.70
2023-03-22T05:28:04.036Z,30.50
2023-03-22T05:30:44.391Z,26.60
2023-03-22T05:33:29.720Z,28.00
2023-03-22T05:35:58.657Z,29.00
2023-03-22T05:38:30.704Z,29.30
2023-03-22T05:41:00.840Z,28.10
2023-03-22T05:43:32.803Z,31.60
2023-03-22T05:46:09.057Z,28.40
2023-03-22T05:49:01.100Z,26.30
2023-03-22T05:51:32.270Z,29.20
2023-03-22T05:54:00.552Z,27.70
2023-03-22T05:56:35.494Z,23.90
2023-03-22T05:59:07.199Z,24.80
2023-03-22T06:01:36.560Z,28.30
2023-03-22T06:04:14.684Z,26.60
2023-03-22T06:06:56.171Z,23.80
2023-03-22T06:09:43.084Z,24.00
2023-03-22T06:12:24.682Z,23.80
2023-03-22T06:14:59.062Z,22.50
2023-03-22T06:17:49.484Z,22.80
2023-03-22T06:20:22.239Z,25.00
2023-03-22T06:22:55.238Z,23.70
2023-03-22T06:25:24.415Z,24.00
2023-03-22T06:27:55.061Z,23.80
2023-03-22T06:30:23.959Z,20.50
2023-03-22T06:33:12.631Z,21.40
2023-03-22T06:35:45.612Z,25.30
2023-03-22T06:38:17.886Z,24.10
2023-03-22T06:40:46.669Z,21.80
2023-03-22T06:43:14.985Z,23.50
2023-03-22T06:45:47.678Z,22.70
2023-03-22T06:48:16.326Z,27.40
2023-03-22T06:51:14.047Z,25.50
2023-03-22T06:53:42.956Z,26.40
2023-03-22T06:56:11.803Z,21.00
2023-03-22T06:58:47.841Z,23.20
2023-03-22T07:01:15.934Z,21.50
2023-03-22T07:03:46.058Z,22.90
2023-03-22T07:06:16.817Z,23.50
2023-03-22T07:08:47.594Z,24.30
2023-03-22T07:11:20.428Z,20.60
2023-03-22T07:13:57.191Z,21.60
2023-03-22T07:16:28.625Z,19.70
2023-03-22T07:19:02.792Z,20.70
2023-03-22T07:21:32.933Z,21.50
2023-03-22T07:24:04.479Z,19.50
2023-03-22T07:26:32.990Z,21.90
2023-03-22T07:29:05.023Z,20.00
2023-03-22T07:31:36.801Z,20.00
2023-03-22T07:34:23.224Z,20.60
2023-03-22T07:37:08.649Z,19.60
2023-03-22T07:39:42.873Z,18.90
2023-03-22T07:42:13.720Z,21.40
2023-03-22T07:45:00.515Z,20.20
2023-03-22T07:47:40.699Z,19.10
2023-03-22T07:50:35.720Z,19.90
2023-03-22T07:53:05.236Z,20.10
2023-03-22T07:55:33.892Z,17.90
2023-03-22T07:58:03.983Z,17.70
2023-03-22T08:00:35.441Z,17.10
2023-03-22T08:03:25.394Z,21.30
2023-03-22T08:06:06.709Z,16.60
2023-03-22T08:08:35.720Z,17.50
2023-03-22T08:11:06.853Z,16.50
2023-03-22T08:13:35.905Z,16.30
2023-03-22T08:16:05.498Z,17.80
2023-03-22T08:18:37.383Z,17.30
2023-03-22T08:21:06.646Z,15.90
2023-03-22T08:23:42.111Z,16.00
2023-03-22T08:26:33.573Z,17.10
2023-03-22T08:29:09.719Z,16.90
2023-03-22T08:31:38.460Z,15.40
2023-03-22T08:34:06.917Z,15.50
2023-03-22T08:36:36.889Z,14.20
2023-03-22T08:39:05.437Z,14.00
2023-03-22T08:41:42.404Z,13.30
2023-03-22T08:44:11.012Z,14.50
2023-03-22T08:46:40.410Z,14.00
2023-03-22T08:49:10.585Z,15.60
2023-03-22T08:54:39.728Z,12.30
2023-03-22T08:57:44.776Z,11.40
2023-03-22T09:00:48.936Z,13.90
2023-03-22T09:03:28.930Z,11.50
2023-03-22T09:05:59.382Z,11.80
2023-03-22T09:08:31.762Z,12.20
2023-03-22T09:11:08.795Z,10.50
2023-03-22T09:13:37.382Z,10.60
2023-03-22T09:18:40.672Z,11.70
2023-03-22T09:21:16.276Z,10.70
2023-03-22T09:23:51.822Z,14.00
2023-03-22T09:26:26.832Z,10.90
2023-03-22T09:28:55.913Z,11.40
2023-03-22T09:31:24.257Z,9.70
2023-03-22T09:34:02.432Z,8.60
2023-03-22T09:36:32.475Z,13.00
2023-03-22T09:39:01.368Z,9.60
2023-03-22T09:41:39.696Z,10.30
2023-03-22T09:44:15.720Z,11.30
2023-03-22T09:46:46.695Z,9.90
2023-03-22T09:49:19.428Z,7.80
2023-03-22T09:51:51.574Z,7.20
2023-03-22T09:54:28.704Z,9.90
2023-03-22T09:57:05.365Z,10.90
2023-03-22T09:59:40.191Z,8.80
2023-03-22T10:02:35.691Z,7.70
2023-03-22T10:05:37.357Z,7.90
2023-03-22T10:08:30.458Z,10.50
2023-03-22T10:10:59.747Z,9.40
2023-03-22T10:13:40.964Z,10.00
2023-03-22T10:16:13.636Z,8.40
2023-03-22T10:21:17.730Z,9.30
2023-03-22T10:24:26.218Z,11.20
2023-03-22T10:26:54.472Z,9.60
2023-03-22T10:29:53.505Z,10.40
2023-03-22T10:32:56.466Z,9.00
2023-03-22T10:35:25.511Z,7.90
2023-03-22T10:37:55.097Z,8.20
2023-03-22T10:40:30.590Z,8.50
2023-03-22T10:43:05.990Z,10.80
2023-03-22T10:45:37.278Z,10.20
2023-03-22T10:48:19.255Z,9.20
2023-03-22T10:50:47.447Z,8.80
2023-03-22T10:53:37.525Z,8.60
2023-03-22T10:56:06.313Z,11.00
2023-03-22T10:58:34.507Z,7.70
2023-03-22T11:01:11.160Z,8.50
2023-03-22T11:03:50.313Z,8.90
2023-03-22T11:06:35.190Z,8.70
2023-03-22T11:09:25.570Z,8.90
2023-03-22T11:12:00.394Z,7.90
2023-03-22T11:14:43.329Z,7.10
2023-03-22T11:17:14.313Z,7.30
2023-03-22T11:19:54.769Z,6.40
2023-03-22T11:22:36.580Z,9.60
2023-03-22T11:25:16.747Z,6.70
2023-03-22T11:27:53.754Z,6.60
2023-03-22T11:30:24.970Z,8.70
2023-03-22T11:33:08.962Z,11.20
2023-03-22T11:35:38.513Z,9.60
2023-03-22T11:38:07.710Z,7.40
2023-03-22T11:40:38.161Z,8.80
2023-03-22T11:43:19.930Z,8.70
2023-03-22T11:45:59.695Z,7.70
2023-03-22T11:48:30.153Z,7.70
2023-03-22T11:51:17.889Z,9.70
2023-03-22T11:53:48.402Z,8.10
2023-03-22T11:56:18.286Z,6.70
2023-03-22T11:59:00.146Z,6.30
2023-03-22T12:01:51.722Z,7.10
2023-03-22T12:04:22.872Z,8.10
2023-03-22T12:06:53.818Z,7.20
2023-03-22T12:09:28.978Z,7.50
2023-03-22T12:12:02.893Z,6.40
2023-03-22T12:14:56.168Z,8.20
2023-03-22T12:17:29.141Z,8.30
2023-03-22T12:22:33.752Z,6.60
2023-03-22T12:25:03.710Z,6.80
2023-03-22T12:27:35.090Z,6.30
2023-03-22T12:30:10.047Z,6.70
2023-03-22T12:33:14.390Z,5.80
2023-03-22T12:35:44.272Z,7.40
2023-03-22T12:38:18.068Z,6.80
2023-03-22T12:40:46.428Z,6.20
2023-03-22T12:43:33.322Z,6.90
2023-03-22T12:46:06.813Z,6.80
2023-03-22T12:48:46.335Z,8.60
2023-03-22T12:51:15.031Z,5.40
2023-03-22T12:53:46.802Z,6.70
2023-03-22T12:56:16.940Z,5.30
2023-03-22T12:58:50.519Z,7.00
2023-03-22T13:01:40.319Z,6.40
2023-03-22T13:04:28.882Z,5.50
2023-03-22T13:06:59.375Z,5.20
2023-03-22T13:09:49.502Z,7.80
2023-03-22T13:12:24.682Z,5.20
2023-03-22T13:14:56.444Z,4.50
2023-03-22T13:17:24.881Z,3.90
2023-03-22T13:20:14.913Z,5.30
2023-03-22T13:22:45.961Z,4.70
2023-03-22T13:25:17.330Z,6.00
2023-03-22T13:27:46.426Z,5.10
2023-03-22T13:30:21.782Z,6.50
2023-03-22T13:32:57.605Z,6.00
2023-03-22T13:35:44.120Z,5.50
2023-03-22T13:38:34.223Z,5.50
2023-03-22T13:41:21.327Z,7.40
2023-03-22T13:43:50.715Z,6.10
2023-03-22T13:46:22.762Z,6.80
2023-03-22T13:48:54.858Z,5.30
2023-03-22T13:51:27.234Z,5.80
2023-03-22T13:54:18.782Z,9.30
2023-03-22T13:56:48.668Z,6.10
2023-03-22T13:59:24.535Z,6.90
2023-03-22T14:01:56.224Z,5.60
2023-03-22T14:04:43.368Z,6.60
2023-03-22T14:07:50.961Z,6.90
2023-03-22T14:10:25.908Z,5.60
2023-03-22T14:12:54.715Z,6.10
2023-03-22T14:15:31.515Z,5.90
2023-03-22T14:18:00.990Z,6.20
2023-03-22T14:20:32.056Z,5.60
